sensor_id;sensor_type;location;lat;lon;timestamp;P1;durP1;ratioP1;P2;durP2;ratioP2
20535;SDS011;10426;49.420;8.390;2023-07-29T00:00:08;2.55;;;1.98;;
20535;SDS011;10426;49.420;8.390;2023-07-29T00:02:36;2.30;;;2.20;;
20535;SDS011;10426;49.420;8.390;2023-07-29T00:05:03;1.90;;;1.80;;
20535;SDS011;10426;49.420;8.390;2023-07-29T00:07:29;2.60;;;2.10;;
20535;SDS011;10426;49.420;8.390;2023-07-29T00:09:56;2.28;;;2.00;;
20535;SDS011;10426;49.420;8.390;2023-07-29T00:12:23;2.20;;;2.10;;
20535;SDS011;10426;49.420;8.390;2023-07-29T00:14:51;2.10;;;1.75;;
20535;SDS011;10426;49.420;8.390;2023-07-29T00:17:18;1.95;;;1.77;;
20535;SDS011;10426;49.420;8.390;2023-07-29T00:19:46;2.15;;;1.85;;
20535;SDS011;10426;49.420;8.390;2023-07-29T00:22:13;2.25;;;1.88;;
20535;SDS011;10426;49.420;8.390;2023-07-29T00:24:39;2.17;;;1.90;;
20535;SDS011;10426;49.420;8.390;2023-07-29T00:27:06;1.75;;;1.65;;
20535;SDS011;10426;49.420;8.390;2023-07-29T00:29:33;2.17;;;1.98;;
20535;SDS011;10426;49.420;8.390;2023-07-29T00:32:01;2.10;;;1.90;;
20535;SDS011;10426;49.420;8.390;2023-07-29T00:34:28;2.00;;;1.90;;
20535;SDS011;10426;49.420;8.390;2023-07-29T00:36:56;1.80;;;1.70;;
20535;SDS011;10426;49.420;8.390;2023-07-29T00:39:23;2.08;;;1.90;;
20535;SDS011;10426;49.420;8.390;2023-07-29T00:41:49;1.80;;;1.70;;
20535;SDS011;10426;49.420;8.390;2023-07-29T00:44:16;1.73;;;1.50;;
20535;SDS011;10426;49.420;8.390;2023-07-29T00:46:43;1.70;;;1.60;;
20535;SDS011;10426;49.420;8.390;2023-07-29T00:49:12;2.42;;;1.50;;
20535;SDS011;10426;49.420;8.390;2023-07-29T00:51:39;2.97;;;1.67;;
20535;SDS011;10426;49.420;8.390;2023-07-29T00:54:06;1.65;;;1.58;;
20535;SDS011;10426;49.420;8.390;2023-07-29T00:56:32;1.92;;;1.80;;
20535;SDS011;10426;49.420;8.390;2023-07-29T00:58:59;1.98;;;1.80;;
20535;SDS011;10426;49.420;8.390;2023-07-29T01:01:27;2.03;;;1.60;;
20535;SDS011;10426;49.420;8.390;2023-07-29T01:03:54;1.77;;;1.67;;
20535;SDS011;10426;49.420;8.390;2023-07-29T01:06:23;3.10;;;1.60;;
20535;SDS011;10426;49.420;8.390;2023-07-29T01:08:55;1.85;;;1.50;;
20535;SDS011;10426;49.420;8.390;2023-07-29T01:11:27;1.60;;;1.50;;
20535;SDS011;10426;49.420;8.390;2023-07-29T01:13:58;1.70;;;1.58;;
20535;SDS011;10426;49.420;8.390;2023-07-29T01:16:29;3.08;;;1.70;;
20535;SDS011;10426;49.420;8.390;2023-07-29T01:18:57;1.50;;;1.40;;
20535;SDS011;10426;49.420;8.390;2023-07-29T01:21:26;2.30;;;1.50;;
20535;SDS011;10426;49.420;8.390;2023-07-29T01:23:56;1.30;;;1.30;;
20535;SDS011;10426;49.420;8.390;2023-07-29T01:26:24;1.55;;;1.45;;
20535;SDS011;10426;49.420;8.390;2023-07-29T01:28:51;1.95;;;1.30;;
20535;SDS011;10426;49.420;8.390;2023-07-29T01:31:19;1.77;;;1.40;;
20535;SDS011;10426;49.420;8.390;2023-07-29T01:33:52;1.40;;;1.40;;
20535;SDS011;10426;49.420;8.390;2023-07-29T01:36:20;1.50;;;1.40;;
20535;SDS011;10426;49.420;8.390;2023-07-29T01:38:48;1.60;;;1.50;;
20535;SDS011;10426;49.420;8.390;2023-07-29T01:41:17;1.85;;;1.50;;
20535;SDS011;10426;49.420;8.390;2023-07-29T01:43:44;1.60;;;1.33;;
20535;SDS011;10426;49.420;8.390;2023-07-29T01:46:12;1.65;;;1.40;;
20535;SDS011;10426;49.420;8.390;2023-07-29T01:48:39;1.48;;;1.38;;
20535;SDS011;10426;49.420;8.390;2023-07-29T01:51:06;1.70;;;1.30;;
20535;SDS011;10426;49.420;8.390;2023-07-29T01:53:33;1.60;;;1.35;;
20535;SDS011;10426;49.420;8.390;2023-07-29T01:55:59;1.58;;;1.30;;
20535;SDS011;10426;49.420;8.390;2023-07-29T01:58:27;1.30;;;1.20;;
20535;SDS011;10426;49.420;8.390;2023-07-29T02:00:54;2.45;;;1.40;;
20535;SDS011;10426;49.420;8.390;2023-07-29T02:03:21;5.18;;;1.50;;
20535;SDS011;10426;49.420;8.390;2023-07-29T02:05:47;3.20;;;1.30;;
20535;SDS011;10426;49.420;8.390;2023-07-29T02:08:14;1.95;;;1.40;;
20535;SDS011;10426;49.420;8.390;2023-07-29T02:10:41;3.00;;;1.40;;
20535;SDS011;10426;49.420;8.390;2023-07-29T02:13:10;1.60;;;1.20;;
20535;SDS011;10426;49.420;8.390;2023-07-29T02:15:38;2.17;;;1.40;;
20535;SDS011;10426;49.420;8.390;2023-07-29T02:18:05;3.60;;;1.40;;
20535;SDS011;10426;49.420;8.390;2023-07-29T02:20:32;2.57;;;1.50;;
20535;SDS011;10426;49.420;8.390;2023-07-29T02:22:59;1.40;;;1.30;;
20535;SDS011;10426;49.420;8.390;2023-07-29T02:25:26;1.85;;;1.52;;
20535;SDS011;10426;49.420;8.390;2023-07-29T02:27:52;2.83;;;1.60;;
20535;SDS011;10426;49.420;8.390;2023-07-29T02:30:20;2.20;;;1.30;;
20535;SDS011;10426;49.420;8.390;2023-07-29T02:32:48;1.75;;;1.48;;
20535;SDS011;10426;49.420;8.390;2023-07-29T02:35:15;4.60;;;1.52;;
20535;SDS011;10426;49.420;8.390;2023-07-29T02:37:41;1.45;;;1.42;;
20535;SDS011;10426;49.420;8.390;2023-07-29T02:40:08;1.65;;;1.50;;
20535;SDS011;10426;49.420;8.390;2023-07-29T02:42:35;2.50;;;1.52;;
20535;SDS011;10426;49.420;8.390;2023-07-29T02:45:02;1.90;;;1.60;;
20535;SDS011;10426;49.420;8.390;2023-07-29T02:47:29;1.88;;;1.65;;
20535;SDS011;10426;49.420;8.390;2023-07-29T02:49:57;1.90;;;1.52;;
20535;SDS011;10426;49.420;8.390;2023-07-29T02:52:23;2.17;;;1.63;;
20535;SDS011;10426;49.420;8.390;2023-07-29T02:54:50;1.50;;;1.50;;
20535;SDS011;10426;49.420;8.390;2023-07-29T02:57:17;2.30;;;1.70;;
20535;SDS011;10426;49.420;8.390;2023-07-29T02:59:44;2.33;;;1.75;;
20535;SDS011;10426;49.420;8.390;2023-07-29T03:02:10;1.90;;;1.70;;
20535;SDS011;10426;49.420;8.390;2023-07-29T03:04:37;2.15;;;1.75;;
20535;SDS011;10426;49.420;8.390;2023-07-29T03:07:05;2.10;;;1.70;;
20535;SDS011;10426;49.420;8.390;2023-07-29T03:09:32;1.88;;;1.77;;
20535;SDS011;10426;49.420;8.390;2023-07-29T03:11:58;1.90;;;1.80;;
20535;SDS011;10426;49.420;8.390;2023-07-29T03:14:26;1.90;;;1.80;;
20535;SDS011;10426;49.420;8.390;2023-07-29T03:16:53;2.08;;;1.90;;
20535;SDS011;10426;49.420;8.390;2023-07-29T03:19:19;4.03;;;1.90;;
20535;SDS011;10426;49.420;8.390;2023-07-29T03:21:46;2.25;;;1.92;;
20535;SDS011;10426;49.420;8.390;2023-07-29T03:24:14;1.80;;;1.70;;
20535;SDS011;10426;49.420;8.390;2023-07-29T03:26:40;2.58;;;1.92;;
20535;SDS011;10426;49.420;8.390;2023-07-29T03:29:07;3.05;;;1.98;;
20535;SDS011;10426;49.420;8.390;2023-07-29T03:31:34;2.17;;;1.97;;
20535;SDS011;10426;49.420;8.390;2023-07-29T03:34:00;3.45;;;1.75;;
20535;SDS011;10426;49.420;8.390;2023-07-29T03:36:27;3.23;;;1.70;;
20535;SDS011;10426;49.420;8.390;2023-07-29T03:38:54;2.03;;;1.70;;
20535;SDS011;10426;49.420;8.390;2023-07-29T03:41:22;3.23;;;1.90;;
20535;SDS011;10426;49.420;8.390;2023-07-29T03:43:48;1.98;;;1.63;;
20535;SDS011;10426;49.420;8.390;2023-07-29T03:46:15;1.60;;;1.50;;
20535;SDS011;10426;49.420;8.390;2023-07-29T03:48:45;1.97;;;1.60;;
20535;SDS011;10426;49.420;8.390;2023-07-29T03:51:11;2.13;;;2.03;;
20535;SDS011;10426;49.420;8.390;2023-07-29T03:53:38;4.40;;;2.20;;
20535;SDS011;10426;49.420;8.390;2023-07-29T03:56:04;3.03;;;2.30;;
20535;SDS011;10426;49.420;8.390;2023-07-29T03:58:33;2.50;;;2.30;;
20535;SDS011;10426;49.420;8.390;2023-07-29T04:00:58;2.30;;;2.20;;
20535;SDS011;10426;49.420;8.390;2023-07-29T04:03:25;4.55;;;2.30;;
20535;SDS011;10426;49.420;8.390;2023-07-29T04:05:52;2.47;;;2.28;;
20535;SDS011;10426;49.420;8.390;2023-07-29T04:08:18;2.30;;;2.20;;
20535;SDS011;10426;49.420;8.390;2023-07-29T04:10:45;2.20;;;2.10;;
20535;SDS011;10426;49.420;8.390;2023-07-29T04:13:12;2.50;;;2.30;;
20535;SDS011;10426;49.420;8.390;2023-07-29T04:15:40;2.60;;;2.40;;
20535;SDS011;10426;49.420;8.390;2023-07-29T04:18:06;2.78;;;2.20;;
20535;SDS011;10426;49.420;8.390;2023-07-29T04:20:33;2.60;;;2.40;;
20535;SDS011;10426;49.420;8.390;2023-07-29T04:22:59;2.20;;;2.00;;
20535;SDS011;10426;49.420;8.390;2023-07-29T04:25:27;2.50;;;2.30;;
20535;SDS011;10426;49.420;8.390;2023-07-29T04:27:53;3.22;;;2.10;;
20535;SDS011;10426;49.420;8.390;2023-07-29T04:30:22;2.30;;;2.10;;
20535;SDS011;10426;49.420;8.390;2023-07-29T04:32:50;2.10;;;2.00;;
20535;SDS011;10426;49.420;8.390;2023-07-29T04:35:17;3.25;;;2.30;;
20535;SDS011;10426;49.420;8.390;2023-07-29T04:37:44;2.42;;;2.10;;
20535;SDS011;10426;49.420;8.390;2023-07-29T04:40:10;3.13;;;2.10;;
20535;SDS011;10426;49.420;8.390;2023-07-29T04:42:37;2.50;;;2.40;;
20535;SDS011;10426;49.420;8.390;2023-07-29T04:45:05;3.15;;;2.40;;
20535;SDS011;10426;49.420;8.390;2023-07-29T04:47:31;2.85;;;2.60;;
20535;SDS011;10426;49.420;8.390;2023-07-29T04:49:59;2.45;;;2.30;;
20535;SDS011;10426;49.420;8.390;2023-07-29T04:52:26;3.87;;;2.70;;
20535;SDS011;10426;49.420;8.390;2023-07-29T04:54:52;3.35;;;2.70;;
20535;SDS011;10426;49.420;8.390;2023-07-29T04:57:19;2.83;;;2.50;;
20535;SDS011;10426;49.420;8.390;2023-07-29T04:59:46;3.03;;;2.70;;
20535;SDS011;10426;49.420;8.390;2023-07-29T05:02:12;4.63;;;2.63;;
20535;SDS011;10426;49.420;8.390;2023-07-29T05:04:39;2.88;;;2.50;;
20535;SDS011;10426;49.420;8.390;2023-07-29T05:07:07;2.60;;;2.50;;
20535;SDS011;10426;49.420;8.390;2023-07-29T05:09:33;1.63;;;1.60;;
20535;SDS011;10426;49.420;8.390;2023-07-29T05:12:00;2.97;;;2.13;;
20535;SDS011;10426;49.420;8.390;2023-07-29T05:14:27;2.10;;;2.00;;
20535;SDS011;10426;49.420;8.390;2023-07-29T05:16:53;2.13;;;2.03;;
20535;SDS011;10426;49.420;8.390;2023-07-29T05:19:20;2.17;;;2.00;;
20535;SDS011;10426;49.420;8.390;2023-07-29T05:21:47;2.30;;;2.10;;
20535;SDS011;10426;49.420;8.390;2023-07-29T05:24:15;2.47;;;2.10;;
20535;SDS011;10426;49.420;8.390;2023-07-29T05:26:41;1.92;;;1.70;;
20535;SDS011;10426;49.420;8.390;2023-07-29T05:29:08;1.70;;;1.60;;
20535;SDS011;10426;49.420;8.390;2023-07-29T05:31:34;1.70;;;1.38;;
20535;SDS011;10426;49.420;8.390;2023-07-29T05:34:01;1.48;;;1.45;;
20535;SDS011;10426;49.420;8.390;2023-07-29T05:36:28;1.83;;;1.60;;
20535;SDS011;10426;49.420;8.390;2023-07-29T05:38:54;1.60;;;1.50;;
20535;SDS011;10426;49.420;8.390;2023-07-29T05:41:22;1.67;;;1.60;;
20535;SDS011;10426;49.420;8.390;2023-07-29T05:43:49;1.85;;;1.75;;
20535;SDS011;10426;49.420;8.390;2023-07-29T05:46:15;1.65;;;1.58;;
20535;SDS011;10426;49.420;8.390;2023-07-29T05:48:42;4.07;;;1.75;;
20535;SDS011;10426;49.420;8.390;2023-07-29T05:51:09;1.90;;;1.80;;
20535;SDS011;10426;49.420;8.390;2023-07-29T05:53:35;1.90;;;1.80;;
20535;SDS011;10426;49.420;8.390;2023-07-29T05:56:02;1.43;;;1.40;;
20535;SDS011;10426;49.420;8.390;2023-07-29T05:58:30;1.77;;;1.67;;
20535;SDS011;10426;49.420;8.390;2023-07-29T06:00:57;2.20;;;2.00;;
20535;SDS011;10426;49.420;8.390;2023-07-29T06:03:23;1.48;;;1.40;;
20535;SDS011;10426;49.420;8.390;2023-07-29T06:05:50;1.60;;;1.45;;
20535;SDS011;10426;49.420;8.390;2023-07-29T06:08:17;1.88;;;1.50;;
20535;SDS011;10426;49.420;8.390;2023-07-29T06:10:43;2.10;;;1.45;;
20535;SDS011;10426;49.420;8.390;2023-07-29T06:13:10;1.60;;;1.50;;
20535;SDS011;10426;49.420;8.390;2023-07-29T06:15:38;4.13;;;1.88;;
20535;SDS011;10426;49.420;8.390;2023-07-29T06:18:05;2.10;;;2.00;;
20535;SDS011;10426;49.420;8.390;2023-07-29T06:20:31;3.80;;;2.33;;
20535;SDS011;10426;49.420;8.390;2023-07-29T06:22:58;3.92;;;3.38;;
20535;SDS011;10426;49.420;8.390;2023-07-29T06:25:24;3.00;;;2.50;;
20535;SDS011;10426;49.420;8.390;2023-07-29T06:27:51;5.15;;;3.05;;
20535;SDS011;10426;49.420;8.390;2023-07-29T06:30:18;4.20;;;2.67;;
20535;SDS011;10426;49.420;8.390;2023-07-29T06:32:46;2.13;;;2.03;;
20535;SDS011;10426;49.420;8.390;2023-07-29T06:35:12;2.25;;;2.00;;
20535;SDS011;10426;49.420;8.390;2023-07-29T06:37:39;1.77;;;1.67;;
20535;SDS011;10426;49.420;8.390;2023-07-29T06:40:06;2.60;;;1.88;;
20535;SDS011;10426;49.420;8.390;2023-07-29T06:42:33;2.13;;;1.95;;
20535;SDS011;10426;49.420;8.390;2023-07-29T06:44:59;1.95;;;1.85;;
20535;SDS011;10426;49.420;8.390;2023-07-29T06:47:26;1.90;;;1.80;;
20535;SDS011;10426;49.420;8.390;2023-07-29T06:49:54;3.00;;;1.75;;
20535;SDS011;10426;49.420;8.390;2023-07-29T06:52:21;1.88;;;1.52;;
20535;SDS011;10426;49.420;8.390;2023-07-29T06:54:47;1.92;;;1.83;;
20535;SDS011;10426;49.420;8.390;2023-07-29T06:57:14;1.90;;;1.80;;
20535;SDS011;10426;49.420;8.390;2023-07-29T06:59:41;1.80;;;1.70;;
20535;SDS011;10426;49.420;8.390;2023-07-29T07:02:07;3.28;;;2.20;;
20535;SDS011;10426;49.420;8.390;2023-07-29T07:04:34;1.80;;;1.70;;
20535;SDS011;10426;49.420;8.390;2023-07-29T07:07:02;2.08;;;1.90;;
20535;SDS011;10426;49.420;8.390;2023-07-29T07:09:28;2.65;;;1.42;;
20535;SDS011;10426;49.420;8.390;2023-07-29T07:11:55;1.80;;;1.70;;
20535;SDS011;10426;49.420;8.390;2023-07-29T07:14:22;1.92;;;1.77;;
20535;SDS011;10426;49.420;8.390;2023-07-29T07:16:48;1.50;;;1.40;;
20535;SDS011;10426;49.420;8.390;2023-07-29T07:19:15;1.48;;;1.40;;
20535;SDS011;10426;49.420;8.390;2023-07-29T07:21:42;2.10;;;1.50;;
20535;SDS011;10426;49.420;8.390;2023-07-29T07:24:09;1.40;;;1.40;;
20535;SDS011;10426;49.420;8.390;2023-07-29T07:26:37;1.48;;;1.40;;
20535;SDS011;10426;49.420;8.390;2023-07-29T07:29:03;2.80;;;1.50;;
20535;SDS011;10426;49.420;8.390;2023-07-29T07:31:32;1.60;;;1.47;;
20535;SDS011;10426;49.420;8.390;2023-07-29T07:33:59;1.65;;;1.30;;
20535;SDS011;10426;49.420;8.390;2023-07-29T07:36:27;5.93;;;1.80;;
20535;SDS011;10426;49.420;8.390;2023-07-29T07:38:54;1.77;;;1.50;;
20535;SDS011;10426;49.420;8.390;2023-07-29T07:41:22;1.60;;;1.50;;
20535;SDS011;10426;49.420;8.390;2023-07-29T07:43:49;1.42;;;1.20;;
20535;SDS011;10426;49.420;8.390;2023-07-29T07:46:16;2.10;;;1.40;;
20535;SDS011;10426;49.420;8.390;2023-07-29T07:48:42;1.38;;;1.30;;
20535;SDS011;10426;49.420;8.390;2023-07-29T07:51:09;3.20;;;1.38;;
20535;SDS011;10426;49.420;8.390;2023-07-29T07:53:36;1.52;;;1.40;;
20535;SDS011;10426;49.420;8.390;2023-07-29T07:56:03;1.80;;;1.45;;
20535;SDS011;10426;49.420;8.390;2023-07-29T07:58:31;1.50;;;1.42;;
20535;SDS011;10426;49.420;8.390;2023-07-29T08:01:00;1.42;;;1.33;;
20535;SDS011;10426;49.420;8.390;2023-07-29T08:03:27;1.35;;;1.25;;
20535;SDS011;10426;49.420;8.390;2023-07-29T08:05:53;1.20;;;1.20;;
20535;SDS011;10426;49.420;8.390;2023-07-29T08:08:20;1.48;;;1.38;;
20535;SDS011;10426;49.420;8.390;2023-07-29T08:10:47;1.52;;;1.42;;
20535;SDS011;10426;49.420;8.390;2023-07-29T08:13:13;4.05;;;1.50;;
20535;SDS011;10426;49.420;8.390;2023-07-29T08:15:41;2.20;;;1.63;;
20535;SDS011;10426;49.420;8.390;2023-07-29T08:18:11;2.83;;;1.60;;
20535;SDS011;10426;49.420;8.390;2023-07-29T08:20:38;1.50;;;1.40;;
20535;SDS011;10426;49.420;8.390;2023-07-29T08:23:05;2.35;;;1.52;;
20535;SDS011;10426;49.420;8.390;2023-07-29T08:25:31;4.63;;;1.83;;
20535;SDS011;10426;49.420;8.390;2023-07-29T08:27:58;2.88;;;1.80;;
20535;SDS011;10426;49.420;8.390;2023-07-29T08:30:24;2.67;;;1.70;;
20535;SDS011;10426;49.420;8.390;2023-07-29T08:32:52;2.00;;;1.70;;
20535;SDS011;10426;49.420;8.390;2023-07-29T08:35:19;2.42;;;1.67;;
20535;SDS011;10426;49.420;8.390;2023-07-29T08:37:46;1.60;;;1.50;;
20535;SDS011;10426;49.420;8.390;2023-07-29T08:40:12;1.60;;;1.50;;
20535;SDS011;10426;49.420;8.390;2023-07-29T08:42:39;2.30;;;1.70;;
20535;SDS011;10426;49.420;8.390;2023-07-29T08:45:08;2.00;;;1.48;;
20535;SDS011;10426;49.420;8.390;2023-07-29T08:47:36;1.80;;;1.70;;
20535;SDS011;10426;49.420;8.390;2023-07-29T08:50:04;1.80;;;1.65;;
20535;SDS011;10426;49.420;8.390;2023-07-29T08:52:31;1.63;;;1.52;;
20535;SDS011;10426;49.420;8.390;2023-07-29T08:55:00;1.70;;;1.50;;
20535;SDS011;10426;49.420;8.390;2023-07-29T08:57:26;1.40;;;1.40;;
20535;SDS011;10426;49.420;8.390;2023-07-29T08:59:53;1.60;;;1.50;;
20535;SDS011;10426;49.420;8.390;2023-07-29T09:02:21;1.58;;;1.42;;
20535;SDS011;10426;49.420;8.390;2023-07-29T09:04:48;1.90;;;1.40;;
20535;SDS011;10426;49.420;8.390;2023-07-29T09:07:16;1.67;;;1.57;;
20535;SDS011;10426;49.420;8.390;2023-07-29T09:09:42;2.50;;;1.50;;
20535;SDS011;10426;49.420;8.390;2023-07-29T09:12:09;1.15;;;1.10;;
20535;SDS011;10426;49.420;8.390;2023-07-29T09:14:36;1.70;;;1.40;;
20535;SDS011;10426;49.420;8.390;2023-07-29T09:17:06;1.30;;;1.30;;
20535;SDS011;10426;49.420;8.390;2023-07-29T09:19:32;1.48;;;1.38;;
20535;SDS011;10426;49.420;8.390;2023-07-29T09:21:59;1.10;;;1.10;;
20535;SDS011;10426;49.420;8.390;2023-07-29T09:24:27;1.20;;;1.10;;
20535;SDS011;10426;49.420;8.390;2023-07-29T09:26:55;1.00;;;1.00;;
20535;SDS011;10426;49.420;8.390;2023-07-29T09:29:21;1.10;;;0.98;;
20535;SDS011;10426;49.420;8.390;2023-07-29T09:31:48;1.10;;;1.10;;
20535;SDS011;10426;49.420;8.390;2023-07-29T09:34:15;0.93;;;0.93;;
20535;SDS011;10426;49.420;8.390;2023-07-29T09:36:42;1.10;;;1.10;;
20535;SDS011;10426;49.420;8.390;2023-07-29T09:39:10;1.10;;;1.10;;
20535;SDS011;10426;49.420;8.390;2023-07-29T09:41:38;1.40;;;1.20;;
20535;SDS011;10426;49.420;8.390;2023-07-29T09:44:06;1.13;;;1.08;;
20535;SDS011;10426;49.420;8.390;2023-07-29T09:46:33;0.93;;;0.93;;
20535;SDS011;10426;49.420;8.390;2023-07-29T09:49:01;1.10;;;1.10;;
20535;SDS011;10426;49.420;8.390;2023-07-29T09:51:28;0.80;;;0.80;;
20535;SDS011;10426;49.420;8.390;2023-07-29T09:53:54;1.20;;;1.20;;
20535;SDS011;10426;49.420;8.390;2023-07-29T09:56:24;1.47;;;1.10;;
20535;SDS011;10426;49.420;8.390;2023-07-29T09:58:52;1.00;;;1.00;;
20535;SDS011;10426;49.420;8.390;2023-07-29T10:01:19;1.10;;;1.00;;
20535;SDS011;10426;49.420;8.390;2023-07-29T10:03:46;1.10;;;1.10;;
20535;SDS011;10426;49.420;8.390;2023-07-29T10:06:13;1.88;;;1.10;;
20535;SDS011;10426;49.420;8.390;2023-07-29T10:08:40;1.13;;;1.10;;
20535;SDS011;10426;49.420;8.390;2023-07-29T10:11:08;1.42;;;1.33;;
20535;SDS011;10426;49.420;8.390;2023-07-29T10:13:36;1.00;;;1.00;;
20535;SDS011;10426;49.420;8.390;2023-07-29T10:16:04;1.25;;;1.20;;
20535;SDS011;10426;49.420;8.390;2023-07-29T10:18:31;0.98;;;0.98;;
20535;SDS011;10426;49.420;8.390;2023-07-29T10:20:59;3.40;;;1.20;;
20535;SDS011;10426;49.420;8.390;2023-07-29T10:23:26;1.80;;;1.20;;
20535;SDS011;10426;49.420;8.390;2023-07-29T10:25:55;1.38;;;1.05;;
20535;SDS011;10426;49.420;8.390;2023-07-29T10:28:24;2.13;;;1.20;;
20535;SDS011;10426;49.420;8.390;2023-07-29T10:30:52;1.45;;;1.13;;
20535;SDS011;10426;49.420;8.390;2023-07-29T10:33:20;1.20;;;1.20;;
20535;SDS011;10426;49.420;8.390;2023-07-29T10:35:46;1.30;;;1.20;;
20535;SDS011;10426;49.420;8.390;2023-07-29T10:38:13;1.20;;;1.20;;
20535;SDS011;10426;49.420;8.390;2023-07-29T10:40:43;1.10;;;1.00;;
20535;SDS011;10426;49.420;8.390;2023-07-29T10:43:10;1.20;;;1.10;;
20535;SDS011;10426;49.420;8.390;2023-07-29T10:45:37;1.23;;;1.10;;
20535;SDS011;10426;49.420;8.390;2023-07-29T10:48:09;1.30;;;1.08;;
20535;SDS011;10426;49.420;8.390;2023-07-29T10:50:38;2.40;;;1.10;;
20535;SDS011;10426;49.420;8.390;2023-07-29T10:53:05;1.13;;;1.00;;
20535;SDS011;10426;49.420;8.390;2023-07-29T10:55:32;1.48;;;1.05;;
20535;SDS011;10426;49.420;8.390;2023-07-29T10:58:09;1.20;;;1.10;;
20535;SDS011;10426;49.420;8.390;2023-07-29T11:00:38;2.10;;;1.10;;
20535;SDS011;10426;49.420;8.390;2023-07-29T11:03:05;1.10;;;1.10;;
20535;SDS011;10426;49.420;8.390;2023-07-29T11:08:26;1.00;;;1.00;;
20535;SDS011;10426;49.420;8.390;2023-07-29T11:11:01;1.70;;;1.17;;
20535;SDS011;10426;49.420;8.390;2023-07-29T11:13:28;1.20;;;1.20;;
20535;SDS011;10426;49.420;8.390;2023-07-29T11:15:55;1.10;;;1.10;;
20535;SDS011;10426;49.420;8.390;2023-07-29T11:18:25;1.83;;;1.10;;
20535;SDS011;10426;49.420;8.390;2023-07-29T11:20:53;1.30;;;1.20;;
20535;SDS011;10426;49.420;8.390;2023-07-29T11:23:20;1.10;;;1.10;;
20535;SDS011;10426;49.420;8.390;2023-07-29T11:25:48;1.50;;;1.30;;
20535;SDS011;10426;49.420;8.390;2023-07-29T11:28:15;1.80;;;1.20;;
20535;SDS011;10426;49.420;8.390;2023-07-29T11:30:42;1.00;;;1.00;;
20535;SDS011;10426;49.420;8.390;2023-07-29T11:33:09;1.35;;;1.23;;
20535;SDS011;10426;49.420;8.390;2023-07-29T11:35:36;1.23;;;1.13;;
20535;SDS011;10426;49.420;8.390;2023-07-29T11:38:04;1.20;;;1.00;;
20535;SDS011;10426;49.420;8.390;2023-07-29T11:40:30;1.00;;;1.00;;
20535;SDS011;10426;49.420;8.390;2023-07-29T11:42:58;1.17;;;1.10;;
20535;SDS011;10426;49.420;8.390;2023-07-29T11:45:25;1.00;;;1.00;;
20535;SDS011;10426;49.420;8.390;2023-07-29T11:47:52;1.15;;;1.10;;
20535;SDS011;10426;49.420;8.390;2023-07-29T11:50:19;1.25;;;1.10;;
20535;SDS011;10426;49.420;8.390;2023-07-29T11:52:46;1.17;;;1.10;;
20535;SDS011;10426;49.420;8.390;2023-07-29T11:55:13;1.08;;;1.00;;
20535;SDS011;10426;49.420;8.390;2023-07-29T11:57:40;1.83;;;1.00;;
20535;SDS011;10426;49.420;8.390;2023-07-29T12:00:09;2.50;;;1.10;;
20535;SDS011;10426;49.420;8.390;2023-07-29T12:02:38;1.20;;;1.20;;
20535;SDS011;10426;49.420;8.390;2023-07-29T12:05:05;1.63;;;1.10;;
20535;SDS011;10426;49.420;8.390;2023-07-29T12:07:32;1.10;;;1.10;;
20535;SDS011;10426;49.420;8.390;2023-07-29T12:09:59;1.45;;;1.17;;
20535;SDS011;10426;49.420;8.390;2023-07-29T12:12:26;1.20;;;1.20;;
20535;SDS011;10426;49.420;8.390;2023-07-29T12:14:53;2.30;;;1.10;;
20535;SDS011;10426;49.420;8.390;2023-07-29T12:17:22;1.00;;;1.00;;
20535;SDS011;10426;49.420;8.390;2023-07-29T12:19:48;1.65;;;1.00;;
20535;SDS011;10426;49.420;8.390;2023-07-29T12:22:17;2.58;;;1.10;;
20535;SDS011;10426;49.420;8.390;2023-07-29T12:24:44;2.40;;;1.02;;
20535;SDS011;10426;49.420;8.390;2023-07-29T12:27:11;1.10;;;1.00;;
20535;SDS011;10426;49.420;8.390;2023-07-29T12:29:41;1.50;;;1.10;;
20535;SDS011;10426;49.420;8.390;2023-07-29T12:32:08;1.00;;;1.00;;
20535;SDS011;10426;49.420;8.390;2023-07-29T12:34:37;1.10;;;1.00;;
20535;SDS011;10426;49.420;8.390;2023-07-29T12:37:04;1.40;;;1.05;;
20535;SDS011;10426;49.420;8.390;2023-07-29T12:39:32;0.95;;;0.93;;
20535;SDS011;10426;49.420;8.390;2023-07-29T12:41:59;1.23;;;1.10;;
20535;SDS011;10426;49.420;8.390;2023-07-29T12:44:29;1.40;;;1.20;;
20535;SDS011;10426;49.420;8.390;2023-07-29T12:46:55;1.10;;;1.10;;
20535;SDS011;10426;49.420;8.390;2023-07-29T12:49:22;1.20;;;1.10;;
20535;SDS011;10426;49.420;8.390;2023-07-29T12:51:51;1.60;;;1.10;;
20535;SDS011;10426;49.420;8.390;2023-07-29T12:54:18;1.75;;;0.98;;
20535;SDS011;10426;49.420;8.390;2023-07-29T12:56:45;1.10;;;1.10;;
20535;SDS011;10426;49.420;8.390;2023-07-29T12:59:11;1.10;;;1.10;;
20535;SDS011;10426;49.420;8.390;2023-07-29T13:01:38;1.45;;;1.20;;
20535;SDS011;10426;49.420;8.390;2023-07-29T13:04:04;1.30;;;1.20;;
20535;SDS011;10426;49.420;8.390;2023-07-29T13:06:31;1.00;;;1.00;;
20535;SDS011;10426;49.420;8.390;2023-07-29T13:09:00;1.30;;;1.08;;
20535;SDS011;10426;49.420;8.390;2023-07-29T13:11:26;1.10;;;1.00;;
20535;SDS011;10426;49.420;8.390;2023-07-29T13:13:53;2.00;;;1.17;;
20535;SDS011;10426;49.420;8.390;2023-07-29T13:16:19;1.00;;;1.00;;
20535;SDS011;10426;49.420;8.390;2023-07-29T13:18:46;2.00;;;1.10;;
20535;SDS011;10426;49.420;8.390;2023-07-29T13:21:13;1.25;;;1.15;;
20535;SDS011;10426;49.420;8.390;2023-07-29T13:23:39;2.47;;;1.00;;
20535;SDS011;10426;49.420;8.390;2023-07-29T13:26:07;1.10;;;1.10;;
20535;SDS011;10426;49.420;8.390;2023-07-29T13:28:34;1.27;;;1.20;;
20535;SDS011;10426;49.420;8.390;2023-07-29T13:31:00;1.30;;;1.25;;
20535;SDS011;10426;49.420;8.390;2023-07-29T13:33:28;1.00;;;1.00;;
20535;SDS011;10426;49.420;8.390;2023-07-29T13:35:59;1.10;;;1.10;;
20535;SDS011;10426;49.420;8.390;2023-07-29T13:38:25;1.15;;;1.00;;
20535;SDS011;10426;49.420;8.390;2023-07-29T13:40:52;1.10;;;1.10;;
20535;SDS011;10426;49.420;8.390;2023-07-29T13:43:20;1.10;;;1.10;;
20535;SDS011;10426;49.420;8.390;2023-07-29T13:45:46;1.20;;;1.20;;
20535;SDS011;10426;49.420;8.390;2023-07-29T13:48:15;1.50;;;1.10;;
20535;SDS011;10426;49.420;8.390;2023-07-29T13:50:42;1.40;;;1.10;;
20535;SDS011;10426;49.420;8.390;2023-07-29T13:53:09;1.27;;;1.08;;
20535;SDS011;10426;49.420;8.390;2023-07-29T13:55:35;1.97;;;1.20;;
20535;SDS011;10426;49.420;8.390;2023-07-29T13:58:02;1.15;;;1.05;;
20535;SDS011;10426;49.420;8.390;2023-07-29T14:00:30;1.15;;;1.10;;
20535;SDS011;10426;49.420;8.390;2023-07-29T14:02:57;1.50;;;1.40;;
20535;SDS011;10426;49.420;8.390;2023-07-29T14:05:23;1.00;;;1.00;;
20535;SDS011;10426;49.420;8.390;2023-07-29T14:07:50;1.80;;;1.10;;
20535;SDS011;10426;49.420;8.390;2023-07-29T14:10:16;1.20;;;1.20;;
20535;SDS011;10426;49.420;8.390;2023-07-29T14:12:43;1.20;;;1.20;;
20535;SDS011;10426;49.420;8.390;2023-07-29T14:15:10;0.95;;;0.95;;
20535;SDS011;10426;49.420;8.390;2023-07-29T14:17:38;1.10;;;1.00;;
20535;SDS011;10426;49.420;8.390;2023-07-29T14:20:05;1.20;;;1.10;;
20535;SDS011;10426;49.420;8.390;2023-07-29T14:22:32;1.10;;;1.10;;
20535;SDS011;10426;49.420;8.390;2023-07-29T14:24:58;1.83;;;1.00;;
20535;SDS011;10426;49.420;8.390;2023-07-29T14:27:25;2.60;;;1.40;;
20535;SDS011;10426;49.420;8.390;2023-07-29T14:29:51;4.60;;;1.40;;
20535;SDS011;10426;49.420;8.390;2023-07-29T14:32:18;1.00;;;1.00;;
20535;SDS011;10426;49.420;8.390;2023-07-29T14:34:46;1.23;;;1.13;;
20535;SDS011;10426;49.420;8.390;2023-07-29T14:37:14;1.20;;;1.10;;
20535;SDS011;10426;49.420;8.390;2023-07-29T14:39:40;1.10;;;1.00;;
20535;SDS011;10426;49.420;8.390;2023-07-29T14:42:07;1.20;;;1.00;;
20535;SDS011;10426;49.420;8.390;2023-07-29T14:44:34;1.10;;;1.10;;
20535;SDS011;10426;49.420;8.390;2023-07-29T14:47:00;1.08;;;1.08;;
20535;SDS011;10426;49.420;8.390;2023-07-29T14:49:27;1.30;;;1.20;;